Time;durP1;ratioP1;P1;durP2;ratioP2;P2;SDS_P1;SDS_P2;PMS_P1;PMS_P2;Temp;Humidity;BMP_temperature;BMP_pressure;BME280_temperature;BME280_humidity;BME280_pressure;Samples;Min_cycle;Max_cycle;Signal;HPM_P1;HPM_P2
2021/03/25 00:00:08;;;;;;;11.32;6.05;;;;;;;0.12;67.67;100278.22;5090077;28;20032;-23
2021/03/25 00:02:33;;;;;;;12.23;6.20;;;;;;;-0.02;68.74;100279.50;5089555;28;20056;-23
2021/03/25 00:04:59;;;;;;;15.52;7.95;;;;;;;-0.16;69.17;100272.97;5088480;28;20028;-23
2021/03/25 00:07:24;;;;;;;19.60;10.15;;;;;;;0.40;67.83;100269.34;5089641;28;20036;-22
2021/03/25 00:09:50;;;;;;;15.00;8.60;;;;;;;-0.03;69.32;100283.94;5089700;28;20028;-22
2021/03/25 00:12:15;;;;;;;25.35;12.13;;;;;;;0.13;68.39;100280.69;5089938;28;20475;-22
2021/03/25 00:14:41;;;;;;;18.02;8.70;;;;;;;0.29;66.52;100253.84;5089862;28;20494;-22
2021/03/25 00:17:06;;;;;;;34.45;15.90;;;;;;;0.14;68.34;100268.41;5090053;28;20032;-22
2021/03/25 00:19:32;;;;;;;29.58;14.27;;;;;;;0.33;66.63;100281.41;5089747;28;20040;-22
2021/03/25 00:21:58;;;;;;;15.40;7.43;;;;;;;0.01;67.38;100267.94;5089695;28;20575;-22
2021/03/25 00:24:23;;;;;;;10.57;5.75;;;;;;;-0.01;67.44;100268.06;5089475;28;20491;-22
2021/03/25 00:26:49;;;;;;;13.20;6.88;;;;;;;0.13;68.13;100266.75;5089991;28;20032;-22
2021/03/25 00:29:15;;;;;;;14.13;7.13;;;;;;;-0.32;68.44;100257.84;5089288;28;20047;-23
2021/03/25 00:31:41;;;;;;;10.52;6.20;;;;;;;-0.21;68.60;100267.31;5089365;28;20063;-23
2021/03/25 00:34:06;;;;;;;73.28;27.95;;;;;;;0.21;69.61;100282.59;5089498;28;20020;-22
2021/03/25 00:36:32;;;;;;;37.95;17.23;;;;;;;0.25;68.64;100276.09;5089279;28;20032;-24
2021/03/25 00:38:58;;;;;;;11.27;6.93;;;;;;;0.07;68.25;100241.13;5089384;28;20055;-22
2021/03/25 00:41:25;;;;;;;11.70;6.45;;;;;;;0.07;68.71;100272.59;5089144;28;20039;-22
2021/03/25 00:43:51;;;;;;;10.07;6.32;;;;;;;0.08;67.96;100269.84;5089077;28;20058;-22
2021/03/25 00:46:16;;;;;;;13.68;6.60;;;;;;;-0.15;68.20;100258.06;5089177;28;20106;-22
2021/03/25 00:48:42;;;;;;;14.80;8.25;;;;;;;-0.11;69.12;100275.16;5087814;28;20051;-22
2021/03/25 00:51:07;;;;;;;18.95;10.27;;;;;;;0.08;68.04;100276.84;5089102;28;20032;-22
2021/03/25 00:53:35;;;;;;;13.93;7.35;;;;;;;-0.15;68.59;100268.53;5088910;28;20032;-22
2021/03/25 00:56:02;;;;;;;13.68;6.72;;;;;;;-0.16;68.58;100261.63;5071096;28;20483;-22
2021/03/25 00:58:27;;;;;;;11.88;6.82;;;;;;;-0.13;68.83;100267.44;5088790;28;20032;-22
2021/03/25 01:00:53;;;;;;;11.75;6.47;;;;;;;-0.19;68.81;100268.00;5088217;28;20042;-22
2021/03/25 01:03:20;;;;;;;11.82;7.18;;;;;;;-0.33;70.13;100258.81;5088903;28;20075;-22
2021/03/25 01:05:46;;;;;;;18.75;9.30;;;;;;;-0.45;70.72;100260.78;5089072;28;20131;-21
2021/03/25 01:08:12;;;;;;;11.73;6.43;;;;;;;-0.51;70.57;100232.53;5088993;28;20143;-22
2021/03/25 01:10:48;;;;;;;10.93;5.85;;;;;;;-0.46;71.41;100253.88;5088872;28;20109;-22
2021/03/25 01:13:15;;;;;;;11.45;6.18;;;;;;;-0.48;71.46;100255.00;5053788;28;20024;-22
2021/03/25 01:15:41;;;;;;;11.95;6.72;;;;;;;-0.62;72.16;100261.53;5054158;28;20377;-22
2021/03/25 01:18:07;;;;;;;13.40;7.22;;;;;;;-0.43;71.00;100261.47;5088665;28;20561;-23
2021/03/25 01:20:35;;;;;;;14.40;8.20;;;;;;;-0.65;71.42;100240.88;5053731;28;20024;-23
2021/03/25 01:23:01;;;;;;;12.50;7.10;;;;;;;-0.24;70.11;100254.50;5088899;28;20036;-22
2021/03/25 01:25:29;;;;;;;14.90;7.88;;;;;;;-0.43;70.76;100271.09;5088329;28;20056;-23
2021/03/25 01:27:59;;;;;;;14.57;8.05;;;;;;;-0.54;71.04;100258.19;5070632;28;20078;-22
2021/03/25 01:30:25;;;;;;;18.98;9.93;;;;;;;-0.55;71.10;100273.09;5088362;28;20036;-22
2021/03/25 01:32:51;;;;;;;25.52;12.82;;;;;;;-0.46;71.32;100269.59;5088488;28;20494;-22
2021/03/25 01:35:17;;;;;;;20.02;9.50;;;;;;;-0.18;69.91;100284.53;5088049;28;20024;-23
2021/03/25 01:37:43;;;;;;;13.48;7.88;;;;;;;-0.22;70.75;100294.50;5070115;28;20031;-22
2021/03/25 01:40:30;;;;;;;13.55;7.13;;;;;;;-0.27;70.25;100270.50;5088167;28;20028;-22
2021/03/25 01:43:22;;;;;;;12.32;7.00;;;;;;;-0.17;70.16;100287.03;5070179;28;20028;-22
2021/03/25 01:46:01;;;;;;;13.88;7.55;;;;;;;-0.28;69.83;100274.13;5087995;28;20070;-22
2021/03/25 01:48:38;;;;;;;15.07;8.75;;;;;;;-0.35;69.82;100278.25;5088399;28;20028;-22
2021/03/25 01:51:29;;;;;;;17.08;9.80;;;;;;;-0.45;69.38;100245.06;5088063;28;20032;-22
2021/03/25 01:54:12;;;;;;;13.07;7.20;;;;;;;-0.37;70.56;100277.59;5076764;28;20048;-22
2021/03/25 01:56:56;;;;;;;13.85;7.20;;;;;;;-0.57;70.60;100277.66;5088048;28;20024;-22
2021/03/25 01:59:40;;;;;;;14.23;7.63;;;;;;;-0.53;70.82;100275.56;5087506;28;20099;-22
2021/03/25 02:02:33;;;;;;;11.63;7.45;;;;;;;-0.51;70.55;100282.31;5087931;28;20063;-22
2021/03/25 02:05:43;;;;;;;17.48;7.40;;;;;;;-0.76;71.17;100282.91;5087731;28;20028;-22
2021/03/25 02:08:14;;;;;;;13.05;7.45;;;;;;;-0.74;71.08;100288.84;5025128;28;20041;-22
2021/03/25 02:11:08;;;;;;;16.23;7.93;;;;;;;-0.64;70.85;100295.69;5008600;28;20037;-22
2021/03/25 02:13:45;;;;;;;17.27;9.48;;;;;;;-0.62;70.27;100293.75;5034297;28;20044;-22
2021/03/25 02:16:31;;;;;;;14.93;8.48;;;;;;;-0.41;69.61;100292.75;5069527;28;20024;-22
2021/03/25 02:19:02;;;;;;;17.95;8.50;;;;;;;-0.63;69.95;100280.84;5070257;28;20036;-26
2021/03/25 02:21:31;;;;;;;15.77;9.30;;;;;;;-0.70;70.13;100300.69;5069408;28;20157;-23
2021/03/25 02:24:15;;;;;;;;;;;;;;;-0.72;71.29;100292.97;5088196;28;20036;-22
2021/03/25 02:27:25;;;;;;;16.42;8.77;;;;;;;-0.57;70.31;100301.22;5087338;28;20318;-22
2021/03/25 02:30:10;;;;;;;18.17;8.43;;;;;;;-0.52;70.32;100277.22;5066159;28;20032;-22
2021/03/25 02:32:44;;;;;;;15.25;8.35;;;;;;;-0.36;69.39;100271.38;5069918;28;20047;-21
2021/03/25 02:35:21;;;;;;;14.05;7.95;;;;;;;-0.58;70.50;100281.22;5053230;28;20028;-22
2021/03/25 02:37:48;;;;;;;15.35;7.22;;;;;;;-0.68;70.05;100268.13;5070104;28;20050;-22
2021/03/25 02:40:19;;;;;;;13.10;7.97;;;;;;;-0.30;69.52;100299.66;5069255;28;20020;-23
2021/03/25 02:42:52;;;;;;;14.27;8.30;;;;;;;-0.23;69.69;100271.88;5053454;28;20035;-22
2021/03/25 02:45:23;;;;;;;15.77;8.32;;;;;;;-0.26;70.14;100285.28;5069226;28;20047;-22
2021/03/25 02:47:50;;;;;;;14.57;8.00;;;;;;;-0.32;69.63;100293.72;5053113;28;20415;-23
2021/03/25 02:50:26;;;;;;;12.57;7.68;;;;;;;-0.21;69.97;100290.91;5052638;28;20111;-23
2021/03/25 02:52:55;;;;;;;14.95;8.20;;;;;;;-0.17;69.69;100287.03;5053601;28;20100;-22
2021/03/25 02:55:20;;;;;;;14.90;8.18;;;;;;;-0.18;69.88;100306.38;5068676;28;20028;-21
2021/03/25 02:58:03;;;;;;;14.77;8.32;;;;;;;-0.29;69.38;100282.94;5036090;28;20123;-22
2021/03/25 03:00:40;;;;;;;25.20;12.90;;;;;;;0.01;69.36;100309.88;5052359;28;20032;-22
2021/03/25 03:03:09;;;;;;;26.83;12.40;;;;;;;-0.19;69.37;100283.72;5069324;28;20523;-23
2021/03/25 03:05:36;;;;;;;22.60;12.23;;;;;;;0.14;68.61;100299.88;5052208;28;20047;-22
2021/03/25 03:08:31;;;;;;;14.43;7.88;;;;;;;0.08;68.32;100303.06;5069158;28;20450;-22
2021/03/25 03:11:01;;;;;;;12.38;7.57;;;;;;;-0.05;67.89;100291.13;5068905;28;20023;-22
2021/03/25 03:13:28;;;;;;;12.75;6.93;;;;;;;-0.25;69.02;100292.16;5086906;28;20093;-23
2021/03/25 03:15:59;;;;;;;12.80;7.07;;;;;;;-0.13;69.03;100296.25;5069147;28;20046;-22
2021/03/25 03:18:29;;;;;;;12.50;6.80;;;;;;;0.11;68.15;100300.19;5070037;28;20070;-22
2021/03/25 03:20:59;;;;;;;12.77;6.88;;;;;;;0.31;67.38;100309.59;5086933;28;20031;-21
2021/03/25 03:23:25;;;;;;;13.32;6.97;;;;;;;0.17;67.92;100291.72;5069360;28;20063;-22
2021/03/25 03:25:52;;;;;;;11.20;6.72;;;;;;;-0.06;68.55;100268.50;5071830;28;20127;-23
2021/03/25 03:28:49;;;;;;;10.48;6.13;;;;;;;-0.05;67.71;100291.13;5056216;28;20028;-22
2021/03/25 03:31:23;;;;;;;11.75;6.03;;;;;;;-0.35;67.73;100297.44;5089966;28;20043;-22
2021/03/25 03:33:51;;;;;;;9.70;5.70;;;;;;;-0.38;67.89;100304.78;5056803;28;20028;-22
2021/03/25 03:36:18;;;;;;;10.00;5.97;;;;;;;-0.33;68.89;100313.84;5056286;28;20032;-21
2021/03/25 03:38:50;;;;;;;10.20;6.10;;;;;;;-0.30;69.21;100328.47;5089482;28;20499;-22
2021/03/25 03:41:17;;;;;;;9.70;5.78;;;;;;;-0.12;67.68;100318.03;5072143;28;20411;-22
2021/03/25 03:43:43;;;;;;;14.20;7.45;;;;;;;-0.06;68.69;100333.19;5072501;28;20096;-22
2021/03/25 03:46:15;;;;;;;19.45;9.45;;;;;;;0.16;67.16;100326.78;5072357;28;20044;-22
2021/03/25 03:48:43;;;;;;;19.02;8.85;;;;;;;0.12;67.51;100328.88;5072583;28;20113;-22
2021/03/25 03:51:12;;;;;;;18.55;7.47;;;;;;;0.13;67.66;100319.22;5056191;28;20028;-22
2021/03/25 03:53:39;;;;;;;13.77;6.00;;;;;;;0.36;66.41;100340.63;5056006;28;20062;-22
2021/03/25 03:56:29;;;;;;;11.38;6.32;;;;;;;0.45;67.11;100346.78;5055877;28;20080;-22
2021/03/25 03:58:56;;;;;;;12.93;6.90;;;;;;;0.56;65.98;100341.38;5073051;28;20056;-23
2021/03/25 04:01:40;;;;;;;11.68;6.38;;;;;;;0.65;64.63;100348.34;5071828;28;20085;-22
2021/03/25 04:04:09;;;;;;;14.38;6.50;;;;;;;0.31;66.73;100353.38;5055068;28;20058;-22
2021/03/25 04:06:40;;;;;;;11.60;6.15;;;;;;;0.46;66.41;100351.09;5072564;28;20458;-22
2021/03/25 04:09:12;;;;;;;10.43;5.25;;;;;;;0.27;64.80;100363.31;5055038;28;20412;-23
2021/03/25 04:11:47;;;;;;;11.02;5.55;;;;;;;0.07;65.75;100335.53;5090494;28;20038;-21
2021/03/25 04:14:28;;;;;;;10.93;5.00;;;;;;;0.18;66.06;100359.78;5072782;28;20024;-22
2021/03/25 04:16:59;;;;;;;11.05;5.63;;;;;;;-0.09;65.82;100354.47;5072439;28;20024;-22
2021/03/25 04:19:41;;;;;;;8.85;5.30;;;;;;;-0.18;67.01;100363.19;5072212;28;20032;-22
2021/03/25 04:22:14;;;;;;;11.63;5.78;;;;;;;0.07;65.53;100361.75;5056748;28;20032;-22
2021/03/25 04:24:50;;;;;;;9.02;5.25;;;;;;;0.13;65.67;100362.00;5055152;28;20055;-22
2021/03/25 04:27:36;;;;;;;11.85;6.00;;;;;;;0.17;64.92;100373.84;5038677;28;20408;-22
2021/03/25 04:30:29;;;;;;;13.77;6.35;;;;;;;-0.15;65.48;100350.63;5073793;28;20142;-22
2021/03/25 04:32:54;;;;;;;11.95;6.32;;;;;;;-0.14;65.98;100354.91;5066815;28;20052;-22
2021/03/25 04:35:20;;;;;;;12.48;6.80;;;;;;;-0.03;65.66;100352.09;5054409;28;20028;-22
2021/03/25 04:37:46;;;;;;;14.57;6.30;;;;;;;0.27;64.81;100379.06;5088847;28;20024;-22
2021/03/25 04:40:14;;;;;;;10.88;6.38;;;;;;;0.34;63.77;100374.88;5054518;28;20028;-23
2021/03/25 04:42:44;;;;;;;13.23;6.63;;;;;;;0.13;64.68;100372.47;5071886;28;20044;-23
2021/03/25 04:45:30;;;;;;;10.57;5.63;;;;;;;0.24;63.87;100384.59;5071778;28;20047;-23
2021/03/25 04:48:00;;;;;;;14.98;6.30;;;;;;;0.15;65.45;100381.03;5071174;28;20027;-23
2021/03/25 04:50:37;;;;;;;10.43;5.82;;;;;;;0.01;64.97;100378.06;5055046;28;20036;-23
2021/03/25 04:53:16;;;;;;;10.65;6.20;;;;;;;-0.06;64.91;100352.41;5071186;28;20032;-23
2021/03/25 04:55:42;;;;;;;9.70;6.03;;;;;;;0.01;64.56;100396.41;5070353;28;20020;-23
2021/03/25 04:58:08;;;;;;;10.77;5.47;;;;;;;-0.08;63.99;100370.06;5089079;28;20101;-23
2021/03/25 05:00:40;;;;;;;12.52;7.32;;;;;;;0.04;64.85;100396.09;5070957;28;20055;-22
2021/03/25 05:03:07;;;;;;;9.60;6.13;;;;;;;0.03;64.82;100404.97;5088870;28;20078;-22
2021/03/25 05:05:33;;;;;;;11.27;6.40;;;;;;;0.01;64.87;100393.78;5070815;28;20468;-22
2021/03/25 05:08:11;;;;;;;16.52;7.80;;;;;;;0.20;65.44;100388.47;5088916;28;20088;-21
2021/03/25 05:11:04;;;;;;;13.90;6.95;;;;;;;0.12;65.18;100412.81;5071475;28;20107;-23
2021/03/25 05:13:34;;;;;;;13.30;8.45;;;;;;;0.55;64.78;100418.44;5064413;28;20050;-23
2021/03/25 05:16:38;;;;;;;14.52;9.18;;;;;;;1.01;63.55;100414.03;5088977;28;20116;-23
2021/03/25 05:19:16;;;;;;;13.50;8.18;;;;;;;1.07;63.84;100416.06;5070511;28;20538;-23
2021/03/25 05:22:19;;;;;;;16.85;9.13;;;;;;;1.24;63.20;100419.69;5088773;28;20024;-22
2021/03/25 05:25:02;;;;;;;22.58;11.90;;;;;;;1.14;62.50;100409.25;5088723;28;20031;-23
2021/03/25 05:27:37;;;;;;;18.50;9.85;;;;;;;1.22;62.81;100426.06;5088447;28;20479;-23
2021/03/25 05:30:05;;;;;;;16.77;9.77;;;;;;;1.11;64.92;100419.25;5071343;28;20050;-22
2021/03/25 05:32:34;;;;;;;23.77;12.40;;;;;;;1.06;62.42;100389.94;5070667;28;20035;-22
2021/03/25 05:35:00;;;;;;;27.75;11.82;;;;;;;1.35;62.51;100421.28;5070554;28;20120;-22
2021/03/25 05:37:26;;;;;;;18.33;9.52;;;;;;;0.95;63.92;100417.25;5053579;28;20038;-22
2021/03/25 05:39:51;;;;;;;17.83;10.52;;;;;;;1.39;63.22;100433.16;5053525;28;20036;-22
2021/03/25 05:42:22;;;;;;;18.38;10.13;;;;;;;1.03;64.83;100442.78;5088367;28;20569;-21
2021/03/25 05:45:06;;;;;;;20.60;11.38;;;;;;;1.43;62.87;100439.75;5070369;28;20149;-22
2021/03/25 05:47:55;;;;;;;21.48;11.90;;;;;;;1.33;62.96;100449.50;5087931;28;20031;-21
2021/03/25 05:50:36;;;;;;;22.25;11.90;;;;;;;1.58;62.11;100443.50;5088032;28;20059;-22
2021/03/25 05:53:05;;;;;;;22.52;11.35;;;;;;;1.44;62.89;100454.53;5088303;28;20093;-23
2021/03/25 05:56:01;;;;;;;32.17;14.57;;;;;;;1.12;63.44;100447.97;5087938;28;20499;-23
2021/03/25 05:58:31;;;;;;;25.35;13.10;;;;;;;0.96;63.99;100437.28;5088168;28;20036;-22
2021/03/25 06:01:08;;;;;;;19.67;10.88;;;;;;;1.00;64.93;100457.03;5069611;28;20043;-23
2021/03/25 06:03:33;;;;;;;22.63;12.10;;;;;;;1.14;64.11;100434.69;5069592;28;20052;-22
2021/03/25 06:05:59;;;;;;;22.40;11.45;;;;;;;1.19;64.88;100456.09;5069739;28;20105;-23
2021/03/25 06:08:33;;;;;;;22.15;12.38;;;;;;;0.98;65.05;100472.94;5069809;28;20442;-22
2021/03/25 06:11:21;;;;;;;18.80;10.80;;;;;;;0.78;67.62;100461.72;5069542;28;20028;-22
2021/03/25 06:14:11;;;;;;;22.03;12.07;;;;;;;1.35;64.65;100479.91;5069801;28;20027;-22
2021/03/25 06:16:50;;;;;;;17.73;10.85;;;;;;;1.13;64.76;100468.03;5087680;28;20038;-22
2021/03/25 06:19:34;;;;;;;;;;;;;;;1.40;64.63;100475.03;5053961;28;20480;-22
2021/03/25 06:22:08;;;;;;;22.30;10.95;;;;;;;1.27;64.89;100492.13;5087561;28;19930;-23
2021/03/25 06:24:39;;;;;;;29.63;14.05;;;;;;;1.71;63.04;100494.88;5087802;28;20028;-23
2021/03/25 06:27:26;;;;;;;28.92;13.85;;;;;;;1.94;62.62;100484.69;5087557;28;20169;-28
2021/03/25 06:29:53;;;;;;;22.58;11.82;;;;;;;1.73;62.92;100498.16;5071852;28;20092;-22
2021/03/25 06:32:40;;;;;;;19.67;10.40;;;;;;;1.42;64.70;100498.53;5053318;28;20071;-23
2021/03/25 06:35:10;;;;;;;16.67;9.38;;;;;;;1.44;65.62;100498.41;5087859;28;20365;-23
2021/03/25 06:37:38;;;;;;;14.35;9.02;;;;;;;1.48;65.60;100500.56;5069565;28;20415;-22
2021/03/25 06:40:23;;;;;;;17.73;10.40;;;;;;;1.48;65.14;100502.38;5069720;28;20115;-22
2021/03/25 06:43:10;;;;;;;17.55;10.77;;;;;;;1.62;63.51;100506.31;5087827;28;20961;-22
2021/03/25 06:45:38;;;;;;;18.02;11.07;;;;;;;1.49;64.58;100515.38;5069381;28;20028;-22
2021/03/25 06:48:13;;;;;;;14.68;9.10;;;;;;;1.32;65.28;100503.03;5087678;28;20032;-23
2021/03/25 06:50:54;;;;;;;18.05;10.30;;;;;;;1.77;61.96;100489.00;5070779;28;20024;-22
2021/03/25 06:53:20;;;;;;;17.05;8.93;;;;;;;1.68;62.33;100516.22;5086844;28;20036;-21
2021/03/25 06:55:46;;;;;;;22.35;11.75;;;;;;;1.89;61.21;100510.66;5087503;28;20039;-26
2021/03/25 06:58:19;;;;;;;66.72;48.88;;;;;;;2.13;60.83;100496.88;5052804;28;20057;-23
2021/03/25 07:00:54;;;;;;;18.20;9.30;;;;;;;2.27;60.03;100517.38;5071969;28;20032;-22
2021/03/25 07:03:20;;;;;;;18.90;10.50;;;;;;;1.93;60.21;100497.03;5072981;28;20048;-23
2021/03/25 07:05:46;;;;;;;18.15;9.98;;;;;;;1.94;60.10;100497.84;5073080;28;20016;-23
2021/03/25 07:08:14;;;;;;;20.52;11.73;;;;;;;2.59;59.80;100516.72;5091164;28;20032;-22
2021/03/25 07:10:40;;;;;;;22.30;11.70;;;;;;;2.83;58.48;100507.31;5091498;28;20028;-23
2021/03/25 07:13:06;;;;;;;22.75;12.88;;;;;;;2.91;59.19;100519.72;5073268;28;20054;-23
2021/03/25 07:15:35;;;;;;;29.83;17.08;;;;;;;3.10;57.74;100527.34;5056122;28;20406;-23
2021/03/25 07:18:06;;;;;;;39.15;20.17;;;;;;;2.92;59.41;100506.38;5090904;28;20503;-24
2021/03/25 07:20:36;;;;;;;23.17;13.45;;;;;;;2.98;58.74;100520.72;5072779;28;20027;-23
2021/03/25 07:23:13;;;;;;;18.17;10.65;;;;;;;2.79;58.46;100527.88;5072972;28;20036;-24
2021/03/25 07:25:41;;;;;;;25.98;13.77;;;;;;;2.79;58.37;100527.88;5090737;28;20024;-23
2021/03/25 07:28:17;;;;;;;19.17;11.35;;;;;;;2.96;58.33;100527.94;5090929;28;20071;-23
2021/03/25 07:30:54;;;;;;;25.35;12.85;;;;;;;2.86;58.09;100525.44;5072945;28;20031;-23
2021/03/25 07:33:21;;;;;;;25.25;16.00;;;;;;;2.81;60.42;100530.34;5090549;28;20543;-22
2021/03/25 07:35:54;;;;;;;40.97;23.33;;;;;;;3.07;59.20;100535.59;5072578;28;20024;-22
2021/03/25 07:38:31;;;;;;;20.83;11.95;;;;;;;3.16;55.81;100534.63;5072913;28;20086;-23
2021/03/25 07:41:20;;;;;;;35.03;20.15;;;;;;;2.85;57.68;100538.78;5072704;28;20024;-22
2021/03/25 07:43:59;;;;;;;34.80;15.73;;;;;;;2.71;58.64;100514.66;5055606;28;20046;-22
2021/03/25 07:46:27;;;;;;;44.22;20.05;;;;;;;3.01;57.52;100546.75;5090492;28;20089;-23
2021/03/25 07:49:12;;;;;;;100.45;39.90;;;;;;;3.16;56.78;100539.06;5090479;28;20479;-23
2021/03/25 07:51:57;;;;;;;84.25;40.35;;;;;;;3.14;55.59;100535.78;5072481;28;20063;-24
2021/03/25 07:54:37;;;;;;;15.05;8.63;;;;;;;3.10;55.77;100524.72;5090415;28;20055;-22
2021/03/25 07:57:09;;;;;;;13.93;7.72;;;;;;;3.16;55.42;100545.16;5090256;28;20407;-22
2021/03/25 08:00:02;;;;;;;16.40;8.55;;;;;;;2.76;54.12;100507.13;5089893;28;20498;-23
2021/03/25 08:02:33;;;;;;;16.05;9.63;;;;;;;3.48;54.91;100548.09;5085997;28;20044;-22
2021/03/25 08:05:20;;;;;;;18.92;10.00;;;;;;;3.77;53.48;100553.75;5089973;28;20484;-23
2021/03/25 08:07:46;;;;;;;20.33;10.20;;;;;;;3.98;54.23;100539.25;5090103;28;20036;-22
2021/03/25 08:10:22;;;;;;;26.88;13.73;;;;;;;4.33;52.84;100538.13;5071745;28;20034;-22
2021/03/25 08:12:48;;;;;;;18.38;10.25;;;;;;;4.33;52.29;100532.84;5071999;28;20036;-21
2021/03/25 08:15:16;;;;;;;23.67;10.57;;;;;;;4.78;52.06;100539.34;5071912;28;20028;-22
2021/03/25 08:17:44;;;;;;;12.60;6.03;;;;;;;4.82;50.55;100516.88;5090059;28;20028;-22
2021/03/25 08:20:29;;;;;;;14.07;6.45;;;;;;;5.03;49.86;100529.53;5072128;28;20497;-22
2021/03/25 08:23:14;;;;;;;9.80;6.13;;;;;;;5.22;51.03;100528.28;5073153;28;20050;-22
2021/03/25 08:25:41;;;;;;;14.57;5.55;;;;;;;5.50;48.54;100525.16;5073405;28;20070;-22
2021/03/25 08:28:27;;;;;;;15.82;7.35;;;;;;;5.78;49.63;100511.41;5089791;28;20032;-22
2021/03/25 08:31:09;;;;;;;8.98;4.45;;;;;;;6.13;47.32;100533.03;5071697;28;20071;-22
2021/03/25 08:33:43;;;;;;;10.52;7.32;;;;;;;6.37;43.92;100492.25;5071521;28;20032;-22
2021/03/25 08:36:13;;;;;;;9.20;4.68;;;;;;;6.68;44.24;100526.56;5089584;28;20028;-22
2021/03/25 08:39:02;;;;;;;8.38;5.45;;;;;;;6.70;44.29;100521.91;5090279;28;20562;-23
2021/03/25 08:41:54;;;;;;;11.77;5.32;;;;;;;6.55;50.12;100534.31;5074468;28;20491;-22
2021/03/25 08:44:43;;;;;;;7.95;4.38;;;;;;;6.78;43.63;100513.03;5089289;28;20074;-23
2021/03/25 08:47:18;;;;;;;6.88;4.35;;;;;;;7.02;45.15;100523.34;5072158;28;20024;-22
2021/03/25 08:49:58;;;;;;;7.93;4.00;;;;;;;7.25;43.86;100522.41;5072261;28;20092;-23
2021/03/25 08:52:24;;;;;;;9.35;5.00;;;;;;;7.69;44.45;100532.09;5072212;28;20034;-22
2021/03/25 08:54:52;;;;;;;8.38;5.28;;;;;;;7.72;43.77;100518.41;5089202;28;20028;-22
2021/03/25 08:57:28;;;;;;;10.90;6.10;;;;;;;7.77;45.43;100531.16;5054690;28;20032;-22
2021/03/25 09:00:09;;;;;;;9.13;5.30;;;;;;;7.69;41.50;100537.41;5055004;28;20445;-22
2021/03/25 09:02:40;;;;;;;11.43;5.95;;;;;;;7.85;43.12;100531.84;5088940;28;20136;-22
2021/03/25 09:05:17;;;;;;;13.98;7.97;;;;;;;7.74;45.58;100531.50;5054917;28;20020;-22
2021/03/25 09:07:43;;;;;;;21.23;9.45;;;;;;;8.12;41.89;100531.28;5089633;28;20103;-22
2021/03/25 09:10:42;;;;;;;14.52;7.45;;;;;;;8.56;40.79;100528.38;5054626;28;20183;-22
2021/03/25 09:13:12;;;;;;;7.47;4.03;;;;;;;8.28;39.56;100499.09;5033822;28;20040;-23
2021/03/25 09:15:38;;;;;;;5.88;3.72;;;;;;;8.26;39.09;100525.06;5054586;28;20077;-22
2021/03/25 09:18:05;;;;;;;10.98;6.60;;;;;;;8.00;45.18;100529.13;5070891;28;20032;-22
2021/03/25 09:20:36;;;;;;;6.05;3.63;;;;;;;7.87;41.33;100523.69;5070987;28;20031;-22
2021/03/25 09:23:31;;;;;;;7.10;3.63;;;;;;;8.00;42.07;100522.97;5070108;28;20020;-22
2021/03/25 09:26:11;;;;;;;7.18;3.80;;;;;;;8.13;43.57;100533.75;5051903;28;20040;-22
2021/03/25 09:29:03;;;;;;;7.38;4.90;;;;;;;7.93;39.26;100528.25;5088642;28;20024;-22
2021/03/25 09:32:06;;;;;;;5.95;3.25;;;;;;;8.07;39.52;100523.03;5088632;28;20036;-22
2021/03/25 09:34:42;;;;;;;5.20;2.92;;;;;;;8.36;36.78;100522.88;5074357;28;20097;-22
2021/03/25 09:37:22;;;;;;;5.90;3.35;;;;;;;8.70;39.58;100502.66;5088474;28;20040;-21
2021/03/25 09:40:13;;;;;;;6.47;4.15;;;;;;;8.02;43.78;100519.13;5070654;28;20032;-22
2021/03/25 09:42:39;;;;;;;7.35;4.80;;;;;;;8.04;44.15;100503.00;5078587;28;20127;-22
2021/03/25 09:45:28;;;;;;;6.75;3.78;;;;;;;8.37;41.16;100513.88;5070141;28;20039;-22
2021/03/25 09:47:58;;;;;;;7.68;3.80;;;;;;;8.94;37.39;100503.22;5070152;28;20067;-22
2021/03/25 09:50:24;;;;;;;6.40;3.20;;;;;;;9.47;37.55;100507.94;5070395;28;20024;-22
2021/03/25 09:52:52;;;;;;;6.78;4.40;;;;;;;9.60;36.50;100514.13;5088356;28;20032;-22
2021/03/25 09:55:18;;;;;;;7.95;4.53;;;;;;;9.60;35.54;100495.47;5088207;28;20032;-22
2021/03/25 09:57:44;;;;;;;17.05;9.48;;;;;;;9.82;37.23;100509.44;5070272;28;20074;-23
2021/03/25 10:00:18;;;;;;;26.02;12.65;;;;;;;9.64;35.24;100514.50;5088064;28;20103;-23
2021/03/25 10:02:44;;;;;;;7.35;4.18;;;;;;;9.72;38.25;100502.84;5087939;28;20435;-22
2021/03/25 10:05:24;;;;;;;25.83;14.65;;;;;;;9.20;35.98;100506.00;5087913;28;20032;-22
2021/03/25 10:07:55;;;;;;;7.63;3.97;;;;;;;9.31;37.55;100498.47;5087766;28;20066;-22
2021/03/25 10:10:23;;;;;;;13.98;7.93;;;;;;;9.34;38.79;100506.88;5070315;28;20028;-24
2021/03/25 10:13:05;;;;;;;;;;;;;;;9.11;34.67;100507.16;5088554;28;20135;-22
2021/03/25 10:15:30;;;;;;;14.80;8.48;;;;;;;9.79;37.87;100501.03;5087685;28;19919;-23
2021/03/25 10:17:56;;;;;;;6.47;4.47;;;;;;;10.00;39.55;100497.38;5087912;28;20027;-22
2021/03/25 10:20:59;;;;;;;7.03;3.70;;;;;;;9.57;36.07;100498.53;5069730;28;20039;-22
2021/03/25 10:23:32;;;;;;;8.77;4.82;;;;;;;8.71;37.57;100461.78;5087416;28;20051;-22
2021/03/25 10:26:04;;;;;;;7.90;4.43;;;;;;;8.45;38.25;100489.03;5087720;28;20043;-22
2021/03/25 10:28:39;;;;;;;6.82;4.25;;;;;;;8.56;37.56;100495.63;5087509;28;20028;-22
2021/03/25 10:31:23;;;;;;;6.53;3.83;;;;;;;8.65;37.74;100495.28;5069643;28;20032;-22
2021/03/25 10:34:00;;;;;;;6.25;3.47;;;;;;;8.88;39.43;100466.78;5055084;28;20131;-23
2021/03/25 10:36:45;;;;;;;5.63;2.90;;;;;;;9.04;35.70;100466.44;5054614;28;20036;-22
2021/03/25 10:39:26;;;;;;;9.65;5.43;;;;;;;9.32;37.60;100484.97;5053435;28;20084;-21
2021/03/25 10:41:52;;;;;;;6.95;4.15;;;;;;;9.67;35.72;100486.69;5054190;28;20057;-23
2021/03/25 10:44:30;;;;;;;27.35;14.82;;;;;;;9.41;35.71;100488.25;5086299;28;20074;-23
2021/03/25 10:46:57;;;;;;;7.07;4.20;;;;;;;9.65;36.67;100478.88;5087421;28;20160;-22
2021/03/25 10:49:28;;;;;;;11.23;6.38;;;;;;;10.25;35.73;100489.56;5069176;28;20024;-23
2021/03/25 10:51:54;;;;;;;7.30;3.80;;;;;;;9.40;32.79;100482.13;5069552;28;20028;-23
2021/03/25 10:54:29;;;;;;;8.32;4.70;;;;;;;10.08;36.34;100488.34;5052768;28;20392;-22
2021/03/25 10:57:02;;;;;;;6.32;3.35;;;;;;;10.71;31.65;100478.03;5087780;28;20025;-22
2021/03/25 10:59:27;;;;;;;6.30;3.97;;;;;;;10.76;35.55;100470.22;5069014;28;20064;-22
2021/03/25 11:01:57;;;;;;;9.45;4.30;;;;;;;10.08;35.71;100467.03;5068938;28;20068;-22
2021/03/25 11:04:36;;;;;;;4.68;3.08;;;;;;;9.69;36.46;100466.81;5087248;28;20086;-22
2021/03/25 11:07:18;;;;;;;7.78;5.20;;;;;;;9.57;36.70;100463.91;5087438;28;20032;-22
2021/03/25 11:09:59;;;;;;;8.75;5.57;;;;;;;10.52;34.94;100462.91;5087294;28;20086;-22
2021/03/25 11:12:32;;;;;;;13.48;9.52;;;;;;;10.50;35.55;100471.13;5087434;28;20423;-22
2021/03/25 11:15:02;;;;;;;8.05;4.63;;;;;;;10.26;36.88;100453.91;5069154;28;20085;-22
2021/03/25 11:17:30;;;;;;;15.77;12.73;;;;;;;10.39;35.54;100471.75;5085641;28;20050;-22
2021/03/25 11:20:01;;;;;;;6.00;4.22;;;;;;;10.02;32.56;100439.34;5052657;28;20503;-22
2021/03/25 11:22:30;;;;;;;14.98;10.80;;;;;;;10.53;33.79;100432.53;5069963;28;20087;-22
2021/03/25 11:24:58;;;;;;;7.25;4.15;;;;;;;10.50;31.55;100448.94;5069496;28;20039;-21
2021/03/25 11:27:25;;;;;;;7.55;4.30;;;;;;;10.52;32.55;100457.56;5052637;28;20028;-22
2021/03/25 11:30:28;;;;;;;9.93;5.82;;;;;;;9.68;34.07;100472.34;5086974;28;20063;-22
2021/03/25 11:32:53;;;;;;;7.05;4.05;;;;;;;9.79;36.90;100447.78;5087138;28;20108;-22
2021/03/25 11:35:34;;;;;;;9.63;8.20;;;;;;;10.41;34.14;100467.84;5086880;28;20480;-22
2021/03/25 11:38:35;;;;;;;9.35;7.75;;;;;;;10.54;33.08;100450.16;5087040;28;20032;-22
2021/03/25 11:41:03;;;;;;;6.72;4.13;;;;;;;11.01;33.54;100458.84;5086876;28;20858;-22
2021/03/25 11:43:50;;;;;;;11.13;7.15;;;;;;;11.66;31.61;100469.38;5086604;28;20028;-21
2021/03/25 11:46:33;;;;;;;8.40;6.05;;;;;;;10.24;35.98;100466.63;5089245;28;20031;-21
2021/03/25 11:49:18;;;;;;;6.28;4.38;;;;;;;10.78;33.69;100440.66;5090459;28;20035;-22
2021/03/25 11:52:03;;;;;;;6.28;3.75;;;;;;;11.79;31.65;100460.44;5090603;28;20024;-22
2021/03/25 11:54:33;;;;;;;5.28;3.20;;;;;;;11.95;31.77;100457.28;5090581;28;20020;-22
2021/03/25 11:57:22;;;;;;;6.70;3.75;;;;;;;12.38;31.15;100448.44;5072574;28;20119;-22